createdAt,value
2022-10-12T00:01:05.660Z,102211.63
2022-10-12T00:03:33.928Z,102218.63
2022-10-12T00:06:03.257Z,102207.41
2022-10-12T00:08:31.365Z,102206.34
2022-10-12T00:11:00.492Z,102205.34
2022-10-12T00:13:31.956Z,102212.47
2022-10-12T00:16:04.018Z,102206.47
2022-10-12T00:18:32.191Z,102205.59
2022-10-12T00:21:03.982Z,102205.69
2022-10-12T00:23:32.600Z,102206.56
2022-10-12T00:26:06.736Z,102203.94
2022-10-12T00:28:35.890Z,102203.94
2022-10-12T00:31:08.779Z,102204.84
2022-10-12T00:33:37.700Z,102199.56
2022-10-12T00:36:13.333Z,102202.16
2022-10-12T00:38:41.360Z,102197.72
2022-10-12T00:41:10.629Z,102201.97
2022-10-12T00:43:41.954Z,102202.69
2022-10-12T00:46:15.746Z,102202.59
2022-10-12T00:48:45.675Z,102210.69
2022-10-12T00:51:16.786Z,102213.38
2022-10-12T00:53:51.742Z,102211.44
2022-10-12T00:56:25.510Z,102205.19
2022-10-12T00:58:55.435Z,102210.72
2022-10-12T01:01:24.197Z,102198.47
2022-10-12T01:03:52.330Z,102221.25
2022-10-12T01:06:21.206Z,102207.09
2022-10-12T01:08:50.442Z,102203.59
2022-10-12T01:11:18.362Z,102206.31
2022-10-12T01:13:47.599Z,102206.38
2022-10-12T01:16:22.764Z,102201.69
2022-10-12T01:19:00.552Z,102204.97
2022-10-12T01:21:29.753Z,102208.59
2022-10-12T01:24:36.043Z,102203.63
2022-10-12T01:27:30.853Z,102212.38
2022-10-12T01:30:15.816Z,102209.44
2022-10-12T01:32:55.911Z,102202.56
2022-10-12T01:35:29.915Z,102207.25
2022-10-12T01:38:08.932Z,102203.00
2022-10-12T01:40:43.404Z,102199.50
2022-10-12T01:43:11.196Z,102195.03
2022-10-12T01:45:41.459Z,102201.22
2022-10-12T01:48:09.438Z,102200.28
2022-10-12T01:50:45.733Z,102189.72
2022-10-12T01:53:28.895Z,102190.59
2022-10-12T01:56:02.848Z,102180.03
2022-10-12T01:58:48.765Z,102179.19
2022-10-12T02:01:28.269Z,102179.25
2022-10-12T02:04:03.361Z,102174.06
2022-10-12T02:06:37.722Z,102163.63
2022-10-12T02:09:12.490Z,102165.41
2022-10-12T02:11:44.265Z,102162.69
2022-10-12T02:14:16.375Z,102162.63
2022-10-12T02:16:50.867Z,102151.25
2022-10-12T02:19:24.391Z,102151.34
2022-10-12T02:21:54.865Z,102144.38
2022-10-12T02:24:24.529Z,102155.75
2022-10-12T02:26:54.963Z,102157.47
2022-10-12T02:29:27.126Z,102146.91
2022-10-12T02:32:00.892Z,102141.69
2022-10-12T02:34:32.889Z,102143.41
2022-10-12T02:37:06.823Z,102141.66
2022-10-12T02:39:41.223Z,102140.78
2022-10-12T02:42:14.722Z,102136.41
2022-10-12T02:44:44.575Z,102122.44
2022-10-12T02:47:16.106Z,102127.63
2022-10-12T02:49:46.939Z,102123.22
2022-10-12T02:52:16.136Z,102111.03
2022-10-12T02:54:44.127Z,102122.38
2022-10-12T02:57:11.932Z,102119.78
2022-10-12T02:59:39.754Z,102114.50
2022-10-12T03:02:08.904Z,102112.81
2022-10-12T03:04:40.319Z,102106.69
2022-10-12T03:07:08.672Z,102116.31
2022-10-12T03:09:36.558Z,102116.34
2022-10-12T03:12:04.686Z,102117.22
2022-10-12T03:14:34.012Z,102117.13
2022-10-12T03:17:02.018Z,102120.56
2022-10-12T03:19:30.859Z,102121.41
2022-10-12T03:22:00.563Z,102109.94
2022-10-12T03:24:28.481Z,102110.91
2022-10-12T03:26:56.318Z,102108.19
2022-10-12T03:29:24.269Z,102110.66
2022-10-12T03:31:52.047Z,102110.47
2022-10-12T03:34:19.896Z,102110.56
2022-10-12T03:36:47.747Z,102107.88
2022-10-12T03:39:19.375Z,102110.72
2022-10-12T03:41:47.183Z,102114.34
2022-10-12T03:44:15.087Z,102104.69
2022-10-12T03:46:42.939Z,102100.22
2022-10-12T03:49:10.804Z,102110.66
2022-10-12T03:51:50.572Z,102095.75
2022-10-12T03:54:19.810Z,102105.41
2022-10-12T03:56:47.711Z,102106.16
2022-10-12T03:59:15.559Z,102107.13
2022-10-12T04:01:43.507Z,102102.78
2022-10-12T04:04:12.443Z,102101.94
2022-10-12T04:06:42.366Z,102104.53
2022-10-12T04:09:10.414Z,102091.44
2022-10-12T04:11:39.592Z,102102.78
2022-10-12T04:14:07.602Z,102106.28
2022-10-12T04:16:36.563Z,102099.16
2022-10-12T04:19:04.434Z,102100.03
2022-10-12T04:21:32.673Z,102095.66
2022-10-12T04:24:00.602Z,102097.31
2022-10-12T04:26:28.469Z,102104.53
2022-10-12T04:28:57.734Z,102105.47
2022-10-12T04:31:25.673Z,102100.34
2022-10-12T04:33:56.842Z,102103.91
2022-10-12T04:36:26.810Z,102106.59
2022-10-12T04:39:00.656Z,102104.66
2022-10-12T04:41:29.296Z,102104.53
2022-10-12T04:43:59.058Z,102095.88
2022-10-12T04:46:27.495Z,102105.38
2022-10-12T04:48:55.580Z,102100.88
2022-10-12T04:51:23.524Z,102096.41
2022-10-12T04:53:51.414Z,102095.63
2022-10-12T04:56:19.386Z,102104.22
2022-10-12T04:58:50.152Z,102089.28
2022-10-12T05:01:19.575Z,102094.53
2022-10-12T05:03:47.637Z,102097.94
2022-10-12T05:06:15.469Z,102097.84
2022-10-12T05:08:44.608Z,102100.47
2022-10-12T05:11:12.702Z,102095.16
2022-10-12T05:13:42.188Z,102102.03
2022-10-12T05:16:11.772Z,102097.69
2022-10-12T05:18:41.028Z,102102.94
2022-10-12T05:21:08.988Z,102102.84
2022-10-12T05:23:36.839Z,102103.06
2022-10-12T05:26:04.769Z,102095.19
2022-10-12T05:28:35.808Z,102094.16
2022-10-12T05:31:06.521Z,102094.03
2022-10-12T05:33:34.579Z,102087.06
2022-10-12T05:36:04.151Z,102093.09
2022-10-12T05:38:32.057Z,102090.34
2022-10-12T05:41:00.875Z,102088.09
2022-10-12T05:43:30.805Z,102081.09
2022-10-12T05:45:58.844Z,102072.50
2022-10-12T05:48:26.791Z,102076.75
2022-10-12T05:50:58.922Z,102079.22
2022-10-12T05:53:28.448Z,102073.06
2022-10-12T05:55:57.458Z,102083.50
2022-10-12T05:58:27.700Z,102071.34
2022-10-12T06:00:57.098Z,102077.53
2022-10-12T06:03:26.363Z,102076.69
2022-10-12T06:05:54.513Z,102072.31
2022-10-12T06:08:22.432Z,102065.34
2022-10-12T06:10:53.169Z,102072.53
2022-10-12T06:13:21.046Z,102063.66
2022-10-12T06:15:49.415Z,102069.84
2022-10-12T06:18:19.085Z,102065.44
2022-10-12T06:20:56.486Z,102068.16
2022-10-12T06:23:37.902Z,102059.47
2022-10-12T06:26:07.300Z,102068.47
2022-10-12T06:28:35.313Z,102054.59
2022-10-12T06:31:06.687Z,102053.78
2022-10-12T06:33:34.793Z,102058.16
2022-10-12T06:36:16.836Z,102055.47
2022-10-12T06:38:48.771Z,102043.19
2022-10-12T06:41:18.257Z,102046.72
2022-10-12T06:43:46.463Z,102054.63
2022-10-12T06:46:14.257Z,102055.63
2022-10-12T06:48:46.244Z,102042.47
2022-10-12T06:51:16.143Z,102058.31
2022-10-12T06:53:45.230Z,102053.13
2022-10-12T06:56:13.394Z,102049.59
2022-10-12T06:58:42.839Z,102051.38
2022-10-12T07:01:11.676Z,102046.16
2022-10-12T07:03:39.742Z,102035.69
2022-10-12T07:06:09.636Z,102041.84
2022-10-12T07:08:38.004Z,102035.69
2022-10-12T07:11:08.096Z,102038.38
2022-10-12T07:13:37.116Z,102034.84
2022-10-12T07:16:06.814Z,102035.72
2022-10-12T07:18:35.243Z,102031.38
2022-10-12T07:21:03.439Z,102030.50
2022-10-12T07:23:32.176Z,102034.88
2022-10-12T07:26:00.385Z,102035.75
2022-10-12T07:28:28.442Z,102033.94
2022-10-12T07:31:00.870Z,102022.53
2022-10-12T07:33:32.853Z,102029.50
2022-10-12T07:36:13.966Z,102029.50
2022-10-12T07:38:44.955Z,102023.28
2022-10-12T07:41:16.601Z,102015.25
2022-10-12T07:43:45.759Z,102004.47
2022-10-12T07:46:13.873Z,101997.56
2022-10-12T07:48:47.438Z,101986.59
2022-10-12T07:51:18.399Z,101972.22
2022-10-12T07:53:46.443Z,101945.13
2022-10-12T07:56:16.078Z,101923.16
2022-10-12T07:58:44.998Z,101915.31
2022-10-12T08:01:13.019Z,101918.22
2022-10-12T08:03:41.050Z,101909.44
2022-10-12T08:06:11.532Z,101901.28
2022-10-12T08:08:39.616Z,101905.19
2022-10-12T08:11:08.479Z,101904.25
2022-10-12T08:13:39.486Z,101910.47
2022-10-12T08:16:11.663Z,101910.66
2022-10-12T08:18:40.224Z,101907.97
2022-10-12T08:21:10.669Z,101907.63
2022-10-12T08:23:46.480Z,101917.25
2022-10-12T08:26:15.808Z,101929.50
2022-10-12T08:28:44.307Z,101928.81
2022-10-12T08:31:14.309Z,101934.25
2022-10-12T08:33:42.363Z,101923.97
2022-10-12T08:36:13.004Z,101922.03
2022-10-12T08:38:43.272Z,101930.97
2022-10-12T08:41:29.895Z,101947.13
2022-10-12T08:44:28.617Z,101952.44
2022-10-12T08:46:59.710Z,101938.94
2022-10-12T08:49:30.647Z,101955.25
2022-10-12T08:52:04.742Z,101959.47
2022-10-12T08:54:38.737Z,101949.03
2022-10-12T08:57:20.653Z,101962.66
2022-10-12T08:59:50.579Z,101958.25
2022-10-12T09:02:42.329Z,101979.50
2022-10-12T09:05:17.213Z,101974.47
2022-10-12T09:07:55.759Z,101987.06
2022-10-12T09:10:35.347Z,101991.91
2022-10-12T09:13:15.037Z,102011.72
2022-10-12T09:15:49.024Z,102027.31
2022-10-12T09:18:23.550Z,102104.97
2022-10-12T09:20:53.604Z,102219.06
2022-10-12T09:23:28.241Z,102331.19
2022-10-12T09:26:02.832Z,102294.75
2022-10-12T09:28:36.038Z,102011.22
2022-10-12T09:31:22.937Z,101785.91
2022-10-12T09:33:55.682Z,101804.63
2022-10-12T09:36:26.258Z,101796.22
2022-10-12T09:38:56.486Z,101759.84
2022-10-12T09:41:28.207Z,101557.00
2022-10-12T09:43:59.278Z,101744.41
2022-10-12T09:46:36.566Z,101895.03
2022-10-12T09:49:04.502Z,101975.78
2022-10-12T09:51:32.781Z,101965.72
2022-10-12T09:54:04.772Z,101908.28
2022-10-12T09:56:39.974Z,101868.97
2022-10-12T09:59:20.255Z,101811.38
2022-10-12T10:01:59.296Z,101778.72
2022-10-12T10:04:30.090Z,101782.63
2022-10-12T10:07:14.725Z,101744.88
2022-10-12T10:09:47.026Z,101675.06
2022-10-12T10:12:24.148Z,101656.28
2022-10-12T10:14:56.798Z,101607.13
2022-10-12T10:17:27.767Z,101623.09
2022-10-12T10:19:58.006Z,101568.66
2022-10-12T10:22:26.640Z,101534.03
2022-10-12T10:25:00.868Z,101513.16
2022-10-12T10:27:34.045Z,101527.97
2022-10-12T10:30:29.614Z,101439.19
2022-10-12T10:33:15.633Z,101357.53
2022-10-12T10:35:59.312Z,101400.22
2022-10-12T10:38:29.165Z,101375.78
2022-10-12T10:41:00.946Z,101368.69
2022-10-12T10:43:32.020Z,101382.28
2022-10-12T10:46:03.201Z,101457.09
2022-10-12T10:48:35.061Z,101414.44
2022-10-12T10:51:06.264Z,101388.94
2022-10-12T10:53:50.789Z,101398.25
2022-10-12T10:56:25.165Z,101401.88
2022-10-12T10:58:57.704Z,101362.34
2022-10-12T11:01:52.273Z,101332.88
2022-10-12T11:04:30.314Z,101307.56
2022-10-12T11:07:10.870Z,101288.53
2022-10-12T11:10:02.605Z,101263.75
2022-10-12T11:12:37.723Z,101280.88
2022-10-12T11:15:17.817Z,101198.72
2022-10-12T11:17:53.576Z,101143.59
2022-10-12T11:20:38.888Z,101194.91
2022-10-12T11:23:19.528Z,101177.75
2022-10-12T11:26:04.837Z,101127.91
2022-10-12T11:28:37.765Z,101191.19
2022-10-12T11:31:08.461Z,101135.31
2022-10-12T11:33:40.975Z,101093.03
2022-10-12T11:36:14.987Z,101089.03
2022-10-12T11:38:47.979Z,101012.38
2022-10-12T11:41:52.491Z,100982.28
2022-10-12T11:44:18.926Z,100952.16
2022-10-12T11:47:07.612Z,100949.84
2022-10-12T11:49:53.141Z,100935.03
2022-10-12T11:52:27.885Z,100931.63
2022-10-12T11:55:05.736Z,100872.00
2022-10-12T11:57:38.228Z,100913.28
2022-10-12T12:00:19.533Z,100975.69
2022-10-12T12:02:55.395Z,100950.72
2022-10-12T12:05:25.077Z,100960.88
2022-10-12T12:07:56.659Z,100910.91
2022-10-12T12:10:54.437Z,100912.59
2022-10-12T12:13:28.142Z,100882.53
2022-10-12T12:16:35.312Z,100878.94
2022-10-12T12:19:41.512Z,100888.47
2022-10-12T12:22:26.547Z,100871.75
2022-10-12T12:25:06.625Z,100883.56
2022-10-12T12:27:40.213Z,100824.38
2022-10-12T12:30:31.516Z,100805.00
2022-10-12T12:33:01.674Z,100829.16
2022-10-12T12:35:37.810Z,100825.97
2022-10-12T12:38:23.167Z,100834.28
2022-10-12T12:41:18.497Z,100840.56
2022-10-12T12:44:05.378Z,100783.41
2022-10-12T12:47:32.735Z,100817.06
2022-10-12T12:50:00.351Z,100757.63
2022-10-12T12:52:33.087Z,100758.44
2022-10-12T12:55:28.048Z,100776.94
2022-10-12T12:58:28.075Z,100739.88
2022-10-12T13:01:31.884Z,100766.16
2022-10-12T13:04:31.544Z,100726.13
2022-10-12T13:07:39.453Z,100730.38
2022-10-12T13:10:41.302Z,100726.06
2022-10-12T13:13:41.669Z,100732.66
2022-10-12T13:17:09.568Z,100722.00
2022-10-12T13:19:16.679Z,100686.38
2022-10-12T13:21:50.285Z,100713.78
2022-10-12T13:24:25.200Z,100746.28
2022-10-12T13:26:57.530Z,100680.56
2022-10-12T13:29:36.595Z,100671.50
2022-10-12T13:32:13.331Z,100674.94
2022-10-12T13:34:46.489Z,100666.66
2022-10-12T13:37:16.934Z,100689.28
2022-10-12T13:39:47.287Z,100654.63
2022-10-12T13:42:19.417Z,100660.88
2022-10-12T13:44:49.241Z,100672.97
2022-10-12T13:47:26.302Z,100671.47
2022-10-12T13:49:54.949Z,100642.31
2022-10-12T13:52:31.707Z,100654.25
2022-10-12T13:55:05.532Z,100686.28
2022-10-12T13:57:41.696Z,100651.91
2022-10-12T14:00:11.602Z,100659.22
2022-10-12T14:02:39.624Z,100659.16
2022-10-12T14:05:18.112Z,100618.72
2022-10-12T14:07:47.803Z,100622.94
2022-10-12T14:10:21.923Z,100626.97
2022-10-12T14:12:51.879Z,100658.66
2022-10-12T14:15:21.028Z,100632.25
2022-10-12T14:17:52.521Z,100605.88
2022-10-12T14:20:30.347Z,100650.53
2022-10-12T14:23:01.333Z,100702.66
2022-10-12T14:25:32.381Z,100650.19
2022-10-12T14:28:02.778Z,100646.63
2022-10-12T14:30:33.323Z,100633.22
2022-10-12T14:33:15.188Z,100663.00
2022-10-12T14:35:46.784Z,100714.34
2022-10-12T14:38:38.453Z,100782.88
2022-10-12T14:41:36.758Z,100772.41
2022-10-12T14:44:12.265Z,100822.31
2022-10-12T14:46:42.529Z,100831.47
2022-10-12T14:49:18.147Z,100856.22
2022-10-12T14:51:46.883Z,100838.44
2022-10-12T14:54:15.009Z,100952.41
2022-10-12T14:56:44.334Z,101084.25
2022-10-12T14:59:12.439Z,101153.84
2022-10-12T15:01:42.106Z,101167.09
2022-10-12T15:04:14.041Z,101176.72
2022-10-12T15:06:44.072Z,101165.53
2022-10-12T15:09:14.947Z,101194.22
2022-10-12T15:11:44.872Z,101254.53
2022-10-12T15:14:14.427Z,101247.78
2022-10-12T15:16:42.514Z,101366.00
2022-10-12T15:19:10.481Z,101426.34
2022-10-12T15:21:38.278Z,101512.19
2022-10-12T15:24:15.241Z,101522.97
2022-10-12T15:26:46.482Z,101524.78
2022-10-12T15:29:14.537Z,101522.03
2022-10-12T15:31:42.519Z,101533.13
2022-10-12T15:34:13.676Z,101530.28
2022-10-12T15:36:41.695Z,101527.94
2022-10-12T15:39:11.645Z,101525.44
2022-10-12T15:41:39.462Z,101526.44
2022-10-12T15:44:11.091Z,101520.03
2022-10-12T15:46:42.135Z,101510.09
2022-10-12T15:49:10.437Z,101522.13
2022-10-12T15:51:57.899Z,101512.78
2022-10-12T15:54:25.811Z,101509.81
2022-10-12T15:56:56.782Z,101496.06
2022-10-12T15:59:36.430Z,101489.66
2022-10-12T16:02:04.718Z,101473.16
2022-10-12T16:04:40.995Z,101432.94
2022-10-12T16:07:13.214Z,101425.91
2022-10-12T16:09:45.629Z,101404.84
2022-10-12T16:12:13.451Z,101421.97
2022-10-12T16:14:43.711Z,101404.47
2022-10-12T16:17:11.888Z,101407.44
2022-10-12T16:19:40.423Z,101415.91
2022-10-12T16:22:08.444Z,101528.78
2022-10-12T16:24:36.286Z,101557.19
2022-10-12T16:27:04.215Z,101589.47
2022-10-12T16:29:31.954Z,101622.34
2022-10-12T16:32:01.328Z,101674.00
2022-10-12T16:34:31.668Z,101742.72
2022-10-12T16:37:00.296Z,101534.66
2022-10-12T16:39:29.333Z,101550.91
2022-10-12T16:41:57.580Z,101555.19
2022-10-12T16:44:25.591Z,101555.59
2022-10-12T16:46:53.495Z,101599.25
2022-10-12T16:49:23.068Z,101666.75
2022-10-12T16:51:52.937Z,101705.22
2022-10-12T16:54:23.218Z,101709.78
2022-10-12T16:56:51.436Z,101720.59
2022-10-12T16:59:21.344Z,101728.75
2022-10-12T17:01:49.181Z,101675.59
2022-10-12T17:04:17.173Z,101651.22
2022-10-12T17:06:46.642Z,101655.25
2022-10-12T17:09:15.048Z,101664.47
2022-10-12T17:11:46.013Z,101657.63
2022-10-12T17:14:16.740Z,101646.28
2022-10-12T17:16:52.162Z,101632.31
2022-10-12T17:19:21.981Z,101645.16
2022-10-12T17:21:52.541Z,101640.06
2022-10-12T17:24:24.008Z,101636.84
2022-10-12T17:26:52.373Z,101642.22
2022-10-12T17:29:21.053Z,101651.19
2022-10-12T17:31:50.053Z,101666.22
2022-10-12T17:34:20.360Z,101661.94
2022-10-12T17:36:51.694Z,101655.81
2022-10-12T17:39:22.073Z,101647.06
2022-10-12T17:41:50.194Z,101636.69
2022-10-12T17:44:19.238Z,101646.28
2022-10-12T17:46:47.925Z,101650.84
2022-10-12T17:49:20.881Z,101657.13
2022-10-12T17:51:52.186Z,101658.09
2022-10-12T17:54:22.505Z,101664.66
2022-10-12T17:56:50.731Z,101645.19
2022-10-12T17:59:20.468Z,101641.66
2022-10-12T18:01:49.221Z,101646.16
2022-10-12T18:04:17.392Z,101651.91
2022-10-12T18:06:45.776Z,101651.84
2022-10-12T18:09:14.045Z,101640.03
2022-10-12T18:11:44.311Z,101637.13
2022-10-12T18:14:13.125Z,101634.69
2022-10-12T18:16:41.883Z,101638.22
2022-10-12T18:19:11.797Z,101630.56
2022-10-12T18:21:40.032Z,101629.81
2022-10-12T18:24:16.016Z,101629.16
2022-10-12T18:26:47.788Z,101633.56
2022-10-12T18:29:15.839Z,101642.34
2022-10-12T18:31:45.833Z,101632.47
2022-10-12T18:34:13.846Z,101647.47
2022-10-12T18:36:42.822Z,101662.56
2022-10-12T18:39:10.963Z,101662.34
2022-10-12T18:41:41.303Z,101674.38
2022-10-12T18:44:12.317Z,101699.13
2022-10-12T18:46:40.514Z,101709.78
2022-10-12T18:49:10.341Z,101704.34
2022-10-12T18:51:40.624Z,101698.19
2022-10-12T18:54:09.335Z,101690.34
2022-10-12T18:56:37.863Z,101666.81
2022-10-12T18:59:07.077Z,101633.34
2022-10-12T19:01:38.016Z,101584.72
2022-10-12T19:04:08.582Z,101540.00
2022-10-12T19:06:39.773Z,101525.72
2022-10-12T19:09:12.715Z,101490.34
2022-10-12T19:11:46.065Z,101470.16
2022-10-12T19:14:16.064Z,101429.31
2022-10-12T19:16:45.882Z,101343.28
2022-10-12T19:19:20.894Z,101286.97
2022-10-12T19:21:50.113Z,101236.06
2022-10-12T19:24:18.971Z,101190.44
2022-10-12T19:26:46.903Z,101224.09
2022-10-12T19:29:17.762Z,101227.94
2022-10-12T19:31:49.131Z,101212.00
2022-10-12T19:34:19.124Z,101236.97
2022-10-12T19:36:47.705Z,101283.97
2022-10-12T19:39:20.490Z,101303.22
2022-10-12T19:41:49.024Z,101345.50
2022-10-12T19:44:17.302Z,101407.81
2022-10-12T19:46:47.723Z,101459.47
2022-10-12T19:49:19.527Z,101489.31
2022-10-12T19:51:48.299Z,101551.91
2022-10-12T19:54:16.516Z,101596.53
2022-10-12T19:56:44.556Z,101646.94
2022-10-12T19:59:12.787Z,101681.69
2022-10-12T20:01:41.540Z,101722.19
2022-10-12T20:04:12.054Z,101750.47
2022-10-12T20:06:41.977Z,101761.16
2022-10-12T20:09:10.381Z,101748.69
2022-10-12T20:11:38.528Z,101721.16
2022-10-12T20:14:10.589Z,101702.91
2022-10-12T20:16:38.830Z,101680.13
2022-10-12T20:19:08.134Z,101660.78
2022-10-12T20:21:37.572Z,101616.88
2022-10-12T20:24:14.056Z,101597.41
2022-10-12T20:26:51.397Z,101612.44
2022-10-12T20:29:20.639Z,101619.53
2022-10-12T20:31:50.653Z,101612.47
2022-10-12T20:34:38.214Z,101603.16
2022-10-12T20:37:06.722Z,101631.97
2022-10-12T20:39:36.233Z,101659.41
2022-10-12T20:42:04.665Z,101683.09
2022-10-12T20:44:36.817Z,101703.25
2022-10-12T20:47:15.468Z,101726.28
2022-10-12T20:49:48.091Z,101750.31
2022-10-12T20:52:18.471Z,101787.09
2022-10-12T20:54:51.879Z,101799.41
2022-10-12T20:57:24.914Z,101810.91
2022-10-12T20:59:53.216Z,101814.41
2022-10-12T21:02:21.704Z,101791.66
2022-10-12T21:04:50.458Z,101804.88
2022-10-12T21:07:25.890Z,101803.88
2022-10-12T21:09:55.306Z,101796.25
2022-10-12T21:12:23.400Z,101786.50
2022-10-12T21:14:51.586Z,101762.22
2022-10-12T21:17:20.725Z,101765.72
2022-10-12T21:19:49.513Z,101767.66
2022-10-12T21:22:18.001Z,101758.81
2022-10-12T21:24:46.399Z,101739.53
2022-10-12T21:27:15.761Z,101738.75
2022-10-12T21:29:46.840Z,101708.66
2022-10-12T21:32:14.754Z,101692.84
2022-10-12T21:34:42.641Z,101666.44
2022-10-12T21:37:38.380Z,101650.75
2022-10-12T21:40:07.755Z,101643.69
2022-10-12T21:42:37.394Z,101627.25
2022-10-12T21:45:06.170Z,101625.59
2022-10-12T21:47:34.417Z,101614.91
2022-10-12T21:50:08.154Z,101609.69
2022-10-12T21:52:36.415Z,101610.41
2022-10-12T21:55:04.587Z,101613.72
2022-10-12T21:57:32.596Z,101605.78
2022-10-12T22:00:01.891Z,101604.03
2022-10-12T22:02:29.647Z,101601.34
2022-10-12T22:04:57.636Z,101590.75
2022-10-12T22:07:25.484Z,101586.91
2022-10-12T22:09:53.250Z,101590.44
2022-10-12T22:12:22.540Z,101580.59
2022-10-12T22:14:54.446Z,101593.78
2022-10-12T22:17:24.354Z,101585.81
2022-10-12T22:19:52.282Z,101583.78
2022-10-12T22:22:20.583Z,101580.25
2022-10-12T22:24:48.472Z,101572.22
2022-10-12T22:27:16.371Z,101576.41
2022-10-12T22:29:44.126Z,101572.66
2022-10-12T22:32:12.083Z,101572.53
2022-10-12T22:34:41.781Z,101579.63
2022-10-12T22:37:09.612Z,101575.38
2022-10-12T22:39:37.620Z,101578.81
2022-10-12T22:42:05.662Z,101585.84
2022-10-12T22:44:33.435Z,101588.41
2022-10-12T22:47:02.296Z,101598.06
2022-10-12T22:49:30.268Z,101594.28
2022-10-12T22:51:59.830Z,101590.84
2022-10-12T22:54:27.837Z,101604.78
2022-10-12T22:56:55.635Z,101605.75
2022-10-12T22:59:23.495Z,101605.72
2022-10-12T23:01:51.371Z,101597.81
2022-10-12T23:04:19.340Z,101607.28
2022-10-12T23:06:47.239Z,101614.22
2022-10-12T23:09:17.755Z,101612.59
2022-10-12T23:11:45.651Z,101614.53
2022-10-12T23:14:13.542Z,101619.81
2022-10-12T23:16:41.441Z,101610.16
2022-10-12T23:19:10.826Z,101615.50
2022-10-12T23:21:38.732Z,101622.56
2022-10-12T23:24:08.254Z,101616.53
2022-10-12T23:26:37.536Z,101620.91
2022-10-12T23:29:05.490Z,101620.94
2022-10-12T23:31:35.544Z,101620.97
2022-10-12T23:34:05.051Z,101611.22
2022-10-12T23:36:33.487Z,101619.09
2022-10-12T23:39:03.032Z,101613.78
2022-10-12T23:41:36.883Z,101611.19
2022-10-12T23:44:09.289Z,101611.19
2022-10-12T23:46:37.121Z,101609.47
2022-10-12T23:49:05.110Z,101612.19
2022-10-12T23:51:33.072Z,101609.44
2022-10-12T23:54:01.064Z,101606.72
2022-10-12T23:56:29.103Z,101603.28
2022-10-12T23:58:57.296Z,101598.81
